.
WxDataArchive / Data Records for 2016-05-20
2016-05-19 May 2016 2016-05-21

Data Records for Friday, 20 May 2016

Time	Temp	Chill	HIndex	Humid	Dewpt	 Wind 	HiWind	WindDir	Rain 	Barom
-----	----	-----	------	-----	-----	------	------	-------	-----	-----
00:00	51.9	51.9	51.9	76	44.6	0	0	---	0.00	30.124 
00:05	51.7	51.7	51.7	77	44.7	0	0	---	0.00	30.124 
00:10	51.6	51.6	51.6	77	44.6	0	0	---	0.00	30.124 
00:15	51.4	51.4	51.4	77	44.4	0	0	---	0.00	30.126 
00:20	51.3	51.3	51.3	77	44.3	0	0	---	0.00	30.126 
00:25	51.3	51.3	51.3	77	44.3	0	0	---	0.00	30.126 
00:30	51.1	51.1	51.1	78	44.5	0	0	---	0.00	30.131 
00:35	51.0	51.0	51.0	78	44.4	0	0	---	0.00	30.131 
00:40	51.0	51.0	51.0	79	44.7	0	0	---	0.00	30.131 
00:45	50.8	50.8	50.8	79	44.5	0	0	---	0.00	30.132 
00:50	50.7	50.7	50.7	79	44.4	0	0	---	0.00	30.132 
00:55	50.5	50.5	50.5	80	44.6	0	0	---	0.00	30.132 
01:00	50.4	50.4	50.4	81	44.8	0	0	---	0.00	30.140 
01:05	50.4	50.4	50.4	81	44.8	0	0	---	0.00	30.140 
01:10	50.2	50.2	50.2	82	44.9	0	0	---	0.00	30.140 
01:15	50.2	50.2	50.2	82	44.9	0	0	---	0.00	30.141 
01:20	50.1	50.1	50.1	81	44.5	0	0	---	0.00	30.141 
01:25	50.1	50.1	50.1	81	44.5	0	0	---	0.00	30.141 
01:30	49.9	49.9	49.9	81	44.3	0	0	---	0.00	30.138 
01:35	49.8	49.8	49.8	81	44.2	0	0	---	0.00	30.138 
01:40	49.6	49.6	49.6	81	44.0	0	0	---	0.00	30.138 
01:45	49.6	49.6	49.6	81	44.0	0	0	---	0.00	30.137 
01:50	49.5	49.5	49.5	81	43.9	0	0	---	0.00	30.137 
01:55	49.4	49.4	49.4	81	43.8	0	0	---	0.00	30.137 
02:00	49.2	49.2	49.2	82	43.9	0	0	---	0.00	30.135 
02:05	49.2	49.2	49.2	83	44.3	0	0	---	0.00	30.135 
02:10	49.2	49.2	49.2	83	44.3	0	0	---	0.00	30.135 
02:15	48.9	48.9	48.9	84	44.3	0	0	---	0.00	30.132 
02:20	48.8	48.8	48.8	84	44.2	0	0	---	0.00	30.132 
02:25	48.6	48.6	48.6	84	44.0	0	0	---	0.00	30.132 
02:30	48.5	48.5	48.5	84	43.9	0	0	---	0.00	30.131 
02:35	48.3	48.3	48.3	84	43.7	0	0	---	0.00	30.131 
02:40	48.2	48.2	48.2	85	43.9	0	0	---	0.00	30.131 
02:45	48.0	48.0	48.0	85	43.7	0	0	---	0.00	30.134 
02:50	47.9	47.9	47.9	85	43.6	0	0	---	0.00	30.134 
02:55	47.9	47.9	47.9	86	43.9	0	0	---	0.00	30.134 
03:00	47.9	47.9	47.9	87	44.2	0	0	---	0.00	30.134 
03:05	47.7	47.7	47.7	87	44.0	0	0	---	0.00	30.134 
03:10	47.7	47.7	47.7	87	44.0	0	0	---	0.00	30.134 
03:15	47.7	47.7	47.7	88	44.3	0	0	---	0.00	30.129 
03:20	47.6	47.6	47.6	88	44.2	0	0	---	0.00	30.129 
03:25	47.6	47.6	47.6	88	44.2	0	0	---	0.00	30.129 
03:30	47.4	47.4	47.4	88	44.0	0	0	---	0.00	30.129 
03:35	47.4	47.4	47.4	88	44.0	0	0	---	0.00	30.129 
03:40	47.3	47.3	47.3	88	43.9	0	0	---	0.00	30.129 
03:45	47.3	47.3	47.3	87	43.6	0	0	---	0.00	30.129 
03:50	47.1	47.1	47.1	87	43.4	0	0	---	0.00	30.129 
03:55	47.1	47.1	47.1	87	43.4	0	0	---	0.00	30.129 
04:00	47.1	47.1	47.1	87	43.4	0	0	---	0.00	30.133 
04:05	47.1	47.1	47.1	86	43.1	0	0	---	0.00	30.133 
04:10	47.1	47.1	47.1	86	43.1	0	0	---	0.00	30.133 
04:15	47.1	47.1	47.1	86	43.1	0	0	---	0.00	30.132 
04:20	47.1	47.1	47.1	86	43.1	0	0	---	0.00	30.132 
04:25	47.1	47.1	47.1	86	43.1	0	0	---	0.00	30.132 
04:30	47.0	47.0	47.0	86	43.0	0	0	---	0.00	30.133 
04:35	47.0	47.0	47.0	86	43.0	0	0	---	0.00	30.133 
04:40	46.8	46.8	46.8	86	42.8	0	0	---	0.00	30.133 
04:45	46.7	46.7	46.7	86	42.7	0	0	---	0.00	30.135 
04:50	46.5	46.5	46.5	86	42.5	0	0	---	0.00	30.135 
04:55	46.5	46.5	46.5	86	42.5	0	0	---	0.00	30.135 
05:00	46.4	46.4	46.4	86	42.4	0	0	---	0.00	30.140 
05:05	46.4	46.4	46.4	86	42.4	0	0	---	0.00	30.140 
05:10	46.2	46.2	46.2	86	42.2	0	0	---	0.00	30.140 
05:15	46.2	46.2	46.2	86	42.2	0	0	---	0.00	30.149 
05:20	46.1	46.1	46.1	86	42.1	0	0	---	0.00	30.149 
05:25	46.0	46.0	46.0	86	42.0	0	0	---	0.00	30.149 
05:30	45.8	45.8	45.8	86	41.9	0	0	---	0.00	30.144 
05:35	45.7	45.7	45.7	86	41.8	0	0	---	0.00	30.144 
05:40	45.5	45.5	45.5	86	41.6	0	0	---	0.00	30.144 
05:45	45.5	45.5	45.5	86	41.6	0	0	---	0.00	30.139 
05:50	45.4	45.4	45.4	87	41.8	0	0	---	0.00	30.139 
05:55	45.2	45.2	45.2	87	41.6	0	0	---	0.00	30.139 
06:00	45.2	45.2	45.2	87	41.6	0	0	---	0.00	30.146 
06:05	45.2	45.2	45.2	87	41.6	0	0	---	0.00	30.146 
06:10	45.2	45.2	45.2	87	41.6	0	0	---	0.00	30.146 
06:15	45.1	45.1	45.1	87	41.5	0	0	---	0.00	30.151 
06:20	44.9	44.9	44.9	87	41.3	0	0	---	0.00	30.151 
06:25	44.9	44.9	44.9	87	41.3	0	0	---	0.00	30.151 
06:30	44.9	44.9	44.9	88	41.6	0	0	---	0.00	30.151 
06:35	44.9	44.9	44.9	88	41.6	0	0	---	0.00	30.151 
06:40	44.9	44.9	44.9	88	41.6	0	0	---	0.00	30.151 
06:45	45.1	45.1	45.1	88	41.8	0	0	---	0.00	30.153 
06:50	45.2	45.2	45.2	88	41.9	0	0	---	0.00	30.153 
06:55	45.4	45.4	45.4	88	42.1	0	0	---	0.00	30.153 
07:00	45.7	45.7	45.7	88	42.4	0	0	---	0.00	30.152 
07:05	45.8	45.8	45.8	88	42.5	0	0	---	0.00	30.152 
07:10	46.2	46.2	46.2	88	42.8	0	0	---	0.00	30.152 
07:15	46.7	46.7	46.7	88	43.3	0	0	---	0.00	30.154 
07:20	47.1	47.1	47.1	88	43.7	0	0	---	0.00	30.154 
07:25	47.6	47.6	47.6	88	44.2	0	0	---	0.00	30.154 
07:30	48.2	48.2	48.2	88	44.8	0	0	---	0.00	30.165 
07:35	48.8	48.8	48.8	88	45.4	0	0	---	0.00	30.165 
07:40	49.5	49.5	49.5	85	45.2	0	1	158	0.00	30.165 
07:45	50.5	50.5	50.5	77	43.6	1	2	158	0.00	30.169 
07:50	51.4	51.4	51.4	73	43.0	1	2	158	0.00	30.169 
07:55	52.2	52.2	52.2	71	43.1	0	3	158	0.00	30.169 
08:00	52.6	52.6	52.6	71	43.5	0	2	158	0.00	30.164 
08:05	53.1	53.1	53.1	69	43.2	0	2	158	0.00	30.164 
08:10	53.5	53.5	53.5	67	42.8	0	3	135	0.00	30.164 
08:15	53.9	53.9	53.9	67	43.2	0	2	135	0.00	30.169 
08:20	54.2	54.2	54.2	67	43.5	0	2	135	0.00	30.169 
08:25	54.5	54.5	54.5	63	42.2	1	3	135	0.00	30.169 
08:30	54.7	54.7	54.7	62	41.9	1	2	68	0.00	30.178 
08:35	55.0	55.0	55.0	64	43.0	0	2	68	0.00	30.178 
08:40	55.3	55.3	55.3	64	43.3	0	2	68	0.00	30.178 
08:45	55.6	55.6	55.6	63	43.2	1	3	68	0.00	30.178 
08:50	55.7	55.7	55.7	63	43.3	1	3	90	0.00	30.178 
08:55	56.2	56.2	56.2	64	44.2	0	2	90	0.00	30.178 
09:00	56.5	56.5	56.5	62	43.6	0	2	90	0.00	30.180 
09:05	56.9	56.9	56.9	61	43.6	1	3	90	0.00	30.180 
09:10	57.3	57.3	57.3	58	42.6	1	4	90	0.00	30.180 
09:15	58.0	58.0	58.0	61	44.6	2	4	90	0.00	30.183 
09:20	58.6	58.6	58.6	56	43.0	2	4	45	0.00	30.183 
09:25	59.2	59.2	59.2	54	42.6	1	5	90	0.00	30.183 
09:30	60.1	60.1	60.1	52	42.4	1	4	90	0.00	30.180 
09:35	60.2	60.2	60.2	50	41.5	2	6	90	0.00	30.180 
09:40	60.2	60.2	60.2	54	43.5	1	4	90	0.00	30.180 
09:45	60.2	60.2	60.2	51	42.0	2	6	112	0.00	30.180 
09:50	60.4	60.4	60.4	52	42.7	1	2	90	0.00	30.180 
09:55	60.7	60.7	60.7	52	43.0	1	3	112	0.00	30.180 
10:00	61.0	61.0	61.0	51	42.7	2	5	112	0.00	30.174 
10:05	61.0	61.0	61.0	51	42.7	2	7	90	0.00	30.174 
10:10	60.9	60.9	60.9	51	42.6	3	9	68	0.00	30.174 
10:15	61.0	61.0	61.0	49	41.7	2	5	90	0.00	30.171 
10:20	61.3	61.3	61.3	49	42.0	2	6	68	0.00	30.171 
10:25	61.5	61.5	61.5	47	41.1	2	5	90	0.00	30.171 
10:30	61.5	61.5	61.5	46	40.5	3	7	90	0.00	30.168 
10:35	61.6	61.6	61.6	46	40.6	3	7	68	0.00	30.168 
10:40	61.8	61.8	61.8	46	40.8	2	5	90	0.00	30.168 
10:45	62.1	62.1	62.1	45	40.5	2	5	90	0.00	30.167 
10:50	62.4	62.4	62.4	43	39.6	3	7	90	0.00	30.167 
10:55	62.4	62.4	62.4	40	37.8	3	7	90	0.00	30.167 
11:00	62.6	62.6	62.6	43	39.8	3	6	112	0.00	30.167 
11:05	62.6	62.6	62.6	41	38.6	3	9	90	0.00	30.167 
11:10	62.9	62.9	62.9	42	39.5	3	5	90	0.00	30.167 
11:15	62.9	62.9	62.9	43	40.1	2	6	90	0.00	30.167 
11:20	63.7	63.7	63.7	43	40.8	2	6	90	0.00	30.167 
11:25	64.5	64.5	64.5	44	42.1	2	5	90	0.00	30.167 
11:30	64.8	64.8	64.8	42	41.2	3	6	90	0.00	30.159 
11:35	64.8	64.8	64.8	40	39.9	2	5	112	0.00	30.159 
11:40	64.8	64.8	64.8	40	39.9	2	5	112	0.00	30.159 
11:45	65.2	65.2	65.2	37	38.3	3	7	112	0.00	30.155 
11:50	65.3	65.3	65.3	36	37.7	3	9	90	0.00	30.155 
11:55	65.3	65.3	65.3	36	37.7	3	7	90	0.00	30.155 
12:00	65.3	65.3	65.3	36	37.7	2	6	90	0.00	30.149 
12:05	65.2	65.2	65.2	37	38.3	3	5	90	0.00	30.149 
12:10	64.8	64.8	64.8	38	38.6	2	6	90	0.00	30.149 
12:15	65.2	65.2	65.2	38	38.9	2	5	90	0.00	30.141 
12:20	65.6	65.6	65.6	37	38.6	1	5	112	0.00	30.141 
12:25	65.6	65.6	65.6	36	37.9	3	5	90	0.00	30.141 
12:30	65.6	65.6	65.6	35	37.2	4	10	112	0.00	30.131 
12:35	66.0	66.0	66.0	35	37.6	4	9	90	0.00	30.131 
12:40	66.1	66.1	66.1	36	38.4	2	6	90	0.00	30.131 
12:45	66.3	66.3	66.3	35	37.8	3	6	90	0.00	30.121 
12:50	66.8	66.8	66.8	35	38.3	1	6	112	0.00	30.121 
12:55	67.3	67.3	67.3	34	38.0	3	6	90	0.00	30.121 
13:00	67.8	67.8	67.8	32	36.9	3	10	90	0.00	30.117 
13:05	67.6	67.6	67.6	33	37.5	4	12	112	0.00	30.117 
13:10	67.6	67.6	67.6	33	37.5	3	13	90	0.00	30.117 
13:15	67.4	67.4	67.4	33	37.3	3	6	90	0.00	30.113 
13:20	67.1	67.1	67.1	32	36.3	3	10	90	0.00	30.113 
13:25	66.9	66.9	66.9	34	37.6	2	6	90	0.00	30.113 
13:30	66.9	66.9	66.9	32	36.1	3	6	112	0.00	30.112 
13:35	67.1	67.1	67.1	35	38.5	3	9	112	0.00	30.112 
13:40	67.3	67.3	67.3	34	38.0	3	7	112	0.00	30.112 
13:45	67.4	67.4	67.4	37	40.2	1	4	68	0.00	30.101 
13:50	67.8	67.8	67.8	35	39.1	3	6	90	0.00	30.101 
13:55	67.6	67.6	67.6	34	38.2	2	6	112	0.00	30.101 
14:00	67.3	67.3	67.3	35	38.7	2	5	112	0.00	30.087 
14:05	67.1	67.1	67.1	34	37.8	3	6	90	0.00	30.087 
14:10	67.1	67.1	67.1	33	37.0	2	5	112	0.00	30.087 
14:15	67.4	67.4	67.4	36	39.5	2	7	90	0.00	30.090 
14:20	68.3	68.3	68.3	35	39.6	3	10	90	0.00	30.090 
14:25	68.9	68.9	68.9	32	37.8	3	9	90	0.00	30.090 
14:30	69.1	69.1	69.1	32	38.0	2	9	90	0.00	30.084 
14:35	68.9	68.9	68.9	31	37.0	2	7	90	0.00	30.084 
14:40	68.6	68.6	68.6	32	37.6	2	6	90	0.00	30.084 
14:45	68.4	68.4	68.4	33	38.2	2	6	90	0.00	30.079 
14:50	68.3	68.3	68.3	33	38.1	3	6	90	0.00	30.079 
14:55	68.1	68.1	68.1	32	37.1	1	7	90	0.00	30.079 
15:00	68.1	68.1	68.1	33	37.9	1	4	90	0.00	30.073 
15:05	67.9	67.9	67.9	33	37.7	2	5	90	0.00	30.073 
15:10	67.8	67.8	67.8	33	37.6	2	10	90	0.00	30.073 
15:15	67.8	67.8	67.8	35	39.1	2	6	90	0.00	30.073 
15:20	67.8	67.8	67.8	32	36.9	2	8	90	0.00	30.073 
15:25	67.6	67.6	67.6	32	36.7	2	5	90	0.00	30.073 
15:30	67.4	67.4	67.4	33	37.3	2	4	112	0.00	30.073 
15:35	67.4	67.4	67.4	32	36.5	2	6	112	0.00	30.073 
15:40	67.3	67.3	67.3	34	38.0	2	5	90	0.00	30.073 
15:45	67.1	67.1	67.1	34	37.8	1	6	112	0.00	30.073 
15:50	67.1	67.1	67.1	34	37.8	1	5	112	0.00	30.073 
15:55	67.1	67.1	67.1	34	37.8	2	6	68	0.00	30.073 
16:00	67.1	67.1	67.1	33	37.0	2	6	112	0.00	30.073 
16:05	67.1	67.1	67.1	34	37.8	1	5	112	0.00	30.073 
16:10	67.1	67.1	67.1	33	37.0	2	5	90	0.00	30.073 
16:15	67.3	67.3	67.3	37	40.1	1	3	68	0.00	30.063 
16:20	67.4	67.4	67.4	36	39.5	1	4	68	0.00	30.063 
16:25	67.4	67.4	67.4	36	39.5	1	5	90	0.00	30.063 
16:30	67.6	67.6	67.6	35	39.0	1	3	112	0.00	30.059 
16:35	67.6	67.6	67.6	35	39.0	2	4	68	0.00	30.059 
16:40	67.8	67.8	67.8	34	38.4	1	6	68	0.00	30.059 
16:45	67.8	67.8	67.8	34	38.4	1	4	90	0.00	30.051 
16:50	67.8	67.8	67.8	35	39.1	1	5	90	0.00	30.051 
16:55	67.6	67.6	67.6	35	39.0	1	4	90	0.00	30.051 
17:00	67.6	67.6	67.6	35	39.0	2	6	90	0.00	30.045 
17:05	67.4	67.4	67.4	35	38.8	3	7	112	0.00	30.045 
17:10	67.3	67.3	67.3	35	38.7	2	6	112	0.00	30.045 
17:15	67.3	67.3	67.3	35	38.7	1	3	68	0.00	30.046 
17:20	67.1	67.1	67.1	36	39.2	1	3	68	0.00	30.046 
17:25	67.1	67.1	67.1	36	39.2	1	4	90	0.00	30.046 
17:30	66.9	66.9	66.9	35	38.4	1	4	112	0.00	30.044 
17:35	66.8	66.8	66.8	39	41.0	0	2	112	0.00	30.044 
17:40	66.8	66.8	66.8	39	41.0	0	3	68	0.00	30.044 
17:45	66.6	66.6	66.6	37	39.5	1	3	68	0.00	30.044 
17:50	66.6	66.6	66.6	39	40.9	0	2	68	0.00	30.044 
17:55	66.4	66.4	66.4	40	41.3	0	1	68	0.00	30.044 
18:00	66.3	66.3	66.3	39	40.6	0	2	68	0.00	30.040 
18:05	66.3	66.3	66.3	40	41.2	1	3	68	0.00	30.040 
18:10	66.1	66.1	66.1	40	41.1	0	3	68	0.00	30.040 
18:15	66.0	66.0	66.0	41	41.6	0	4	68	0.00	30.035 
18:20	66.0	66.0	66.0	42	42.2	0	3	90	0.00	30.035 
18:25	65.6	65.6	65.6	40	40.6	1	2	90	0.00	30.035 
18:30	65.5	65.5	65.5	40	40.5	0	3	90	0.00	30.032 
18:35	65.3	65.3	65.3	40	40.4	0	3	90	0.00	30.032 
18:40	65.2	65.2	65.2	39	39.6	1	3	90	0.00	30.032 
18:45	65.0	65.0	65.0	39	39.4	0	3	90	0.00	30.029 
18:50	65.0	65.0	65.0	40	40.1	0	2	90	0.00	30.029 
18:55	64.8	64.8	64.8	40	39.9	1	2	90	0.00	30.029 
19:00	64.7	64.7	64.7	41	40.5	1	4	90	0.00	30.028 
19:05	64.5	64.5	64.5	41	40.3	0	2	68	0.00	30.028 
19:10	64.3	64.3	64.3	41	40.1	0	1	68	0.00	30.028 
19:15	64.3	64.3	64.3	41	40.1	0	2	45	0.00	30.020 
19:20	64.2	64.2	64.2	42	40.6	0	2	45	0.00	30.020 
19:25	64.0	64.0	64.0	41	39.8	0	2	45	0.00	30.020 
19:30	64.0	64.0	64.0	41	39.8	0	3	45	0.00	30.018 
19:35	63.9	63.9	63.9	41	39.7	0	3	90	0.00	30.018 
19:40	63.7	63.7	63.7	41	39.6	0	3	90	0.00	30.018 
19:45	63.7	63.7	63.7	42	40.2	0	2	90	0.00	30.015 
19:50	63.5	63.5	63.5	43	40.6	0	2	90	0.00	30.015 
19:55	63.4	63.4	63.4	43	40.5	0	2	90	0.00	30.015 
20:00	63.4	63.4	63.4	44	41.1	0	1	90	0.00	30.016 
20:05	63.2	63.2	63.2	43	40.3	0	3	90	0.00	30.016 
20:10	63.1	63.1	63.1	43	40.2	0	1	90	0.00	30.016 
20:15	62.9	62.9	62.9	44	40.6	0	1	90	0.00	30.014 
20:20	62.7	62.7	62.7	45	41.0	0	1	90	0.00	30.014 
20:25	62.6	62.6	62.6	44	40.4	0	1	90	0.00	30.014 
20:30	62.6	62.6	62.6	45	41.0	0	3	90	0.00	30.016 
20:35	62.6	62.6	62.6	46	41.5	0	2	90	0.00	30.016 
20:40	62.4	62.4	62.4	45	40.8	1	4	90	0.00	30.016 
20:45	62.4	62.4	62.4	46	41.3	1	4	90	0.00	30.020 
20:50	62.4	62.4	62.4	46	41.3	1	4	90	0.00	30.020 
20:55	62.4	62.4	62.4	46	41.3	0	3	90	0.00	30.020 
21:00	62.3	62.3	62.3	47	41.8	0	2	90	0.00	30.021 
21:05	62.3	62.3	62.3	47	41.8	1	3	112	0.00	30.021 
21:10	62.1	62.1	62.1	48	42.2	0	3	112	0.00	30.021 
21:15	62.1	62.1	62.1	48	42.2	1	4	68	0.00	30.024 
21:20	62.0	62.0	62.0	48	42.1	1	3	68	0.00	30.024 
21:25	62.0	62.0	62.0	49	42.6	0	2	68	0.00	30.024 
21:30	61.8	61.8	61.8	49	42.4	0	2	68	0.00	30.034 
21:35	61.6	61.6	61.6	49	42.3	1	3	68	0.00	30.034 
21:40	61.6	61.6	61.6	49	42.3	1	4	68	0.00	30.034 
21:45	61.5	61.5	61.5	49	42.2	0	2	68	0.00	30.031 
21:50	61.3	61.3	61.3	49	42.0	1	3	68	0.00	30.031 
21:55	61.3	61.3	61.3	49	42.0	1	4	112	0.00	30.031 
22:00	61.2	61.2	61.2	49	41.9	0	3	112	0.00	30.029 
22:05	61.0	61.0	61.0	49	41.7	1	5	112	0.00	30.029 
22:10	60.9	60.9	60.9	50	42.1	0	2	112	0.00	30.029 
22:15	60.9	60.9	60.9	49	41.6	1	2	112	0.00	30.032 
22:20	60.7	60.7	60.7	50	41.9	1	3	112	0.00	30.032 
22:25	60.5	60.5	60.5	50	41.8	1	3	68	0.00	30.032 
22:30	60.5	60.5	60.5	50	41.8	1	4	90	0.00	30.033 
22:35	60.4	60.4	60.4	51	42.2	1	3	90	0.00	30.033 
22:40	60.2	60.2	60.2	52	42.5	0	2	90	0.00	30.033 
22:45	60.1	60.1	60.1	52	42.4	0	2	90	0.00	30.036 
22:50	59.9	59.9	59.9	53	42.7	0	3	90	0.00	30.036 
22:55	59.8	59.8	59.8	53	42.6	0	1	90	0.00	30.036 
23:00	59.6	59.6	59.6	54	42.9	0	2	90	0.00	30.035 
23:05	59.6	59.6	59.6	54	42.9	0	1	90	0.00	30.035 
23:10	59.5	59.5	59.5	54	42.8	1	4	90	0.00	30.035 
23:15	59.5	59.5	59.5	54	42.8	1	3	90	0.00	30.032 
23:20	59.3	59.3	59.3	55	43.1	0	3	90	0.00	30.032 
23:25	59.3	59.3	59.3	55	43.1	0	2	90	0.00	30.032 
23:30	59.2	59.2	59.2	55	43.0	1	4	90	0.00	30.029 
23:35	59.2	59.2	59.2	55	43.0	1	3	90	0.00	30.029 
23:40	59.2	59.2	59.2	56	43.5	1	3	68	0.00	30.029 
23:45	59.0	59.0	59.0	56	43.3	1	4	68	0.00	30.030 
23:50	58.9	58.9	58.9	57	43.7	1	3	68	0.00	30.030 
23:55	58.7	58.7	58.7	58	44.0	0	2	68	0.00	30.030 

CoCoRaHS
IN-AL-39
A2 Web Hosting
Creative Commons License
GoDaddy
search engine by freefind advanced

loaded 2018-11-15 03:50:36 • last modified 2010-11-18 10:43:29
Privacy PolicyDisclaimer
• wx.awcolley.com is powered by PmWiki v.2002016 •
• all content (unless otherwise noted) © 2018 A W Colley